sensor_id;sensor_type;location;lat;lon;timestamp;pressure;altitude;pressure_sealevel;temperature;humidity
63006;BME280;53704;52.532;6.426;2023-11-21T00:02:11;101042.00;;;6.92;100.00
63006;BME280;53704;52.532;6.426;2023-11-21T00:04:37;101038.22;;;6.94;100.00
63006;BME280;53704;52.532;6.426;2023-11-21T00:07:05;101038.13;;;7.05;100.00
63006;BME280;53704;52.532;6.426;2023-11-21T00:09:31;101043.16;;;6.99;100.00
63006;BME280;53704;52.532;6.426;2023-11-21T00:11:57;101047.09;;;6.95;100.00
63006;BME280;53704;52.532;6.426;2023-11-21T00:14:24;101039.78;;;6.97;100.00
63006;BME280;53704;52.532;6.426;2023-11-21T00:16:52;101047.66;;;6.98;100.00
63006;BME280;53704;52.532;6.426;2023-11-21T00:19:18;101054.84;;;6.98;100.00
63006;BME280;53704;52.532;6.426;2023-11-21T00:21:43;101045.41;;;7.03;100.00
63006;BME280;53704;52.532;6.426;2023-11-21T00:24:11;101043.88;;;7.01;100.00
63006;BME280;53704;52.532;6.426;2023-11-21T00:26:39;101046.44;;;7.12;100.00
63006;BME280;53704;52.532;6.426;2023-11-21T00:29:05;101047.00;;;7.06;100.00
63006;BME280;53704;52.532;6.426;2023-11-21T00:31:34;101039.53;;;7.10;100.00
63006;BME280;53704;52.532;6.426;2023-11-21T00:34:02;101048.69;;;7.07;100.00
63006;BME280;53704;52.532;6.426;2023-11-21T00:36:29;101047.19;;;6.83;100.00
63006;BME280;53704;52.532;6.426;2023-11-21T00:38:54;101051.63;;;7.04;100.00
63006;BME280;53704;52.532;6.426;2023-11-21T00:41:21;101052.75;;;7.01;100.00
63006;BME280;53704;52.532;6.426;2023-11-21T00:43:46;101054.31;;;7.04;100.00
63006;BME280;53704;52.532;6.426;2023-11-21T00:46:12;101056.19;;;6.82;100.00
63006;BME280;53704;52.532;6.426;2023-11-21T00:48:37;101054.81;;;6.88;100.00
63006;BME280;53704;52.532;6.426;2023-11-21T00:51:03;101053.16;;;6.97;100.00
63006;BME280;53704;52.532;6.426;2023-11-21T00:53:28;101065.56;;;6.98;100.00
63006;BME280;53704;52.532;6.426;2023-11-21T00:55:54;101065.75;;;7.16;100.00
63006;BME280;53704;52.532;6.426;2023-11-21T00:58:26;101076.56;;;7.04;100.00
63006;BME280;53704;52.532;6.426;2023-11-21T01:00:51;101062.63;;;7.01;100.00
63006;BME280;53704;52.532;6.426;2023-11-21T01:03:17;101072.72;;;6.97;100.00
63006;BME280;53704;52.532;6.426;2023-11-21T01:05:42;101082.47;;;6.98;100.00
63006;BME280;53704;52.532;6.426;2023-11-21T01:08:08;101089.38;;;7.01;100.00
63006;BME280;53704;52.532;6.426;2023-11-21T01:10:33;101089.13;;;7.04;100.00
63006;BME280;53704;52.532;6.426;2023-11-21T01:12:59;101091.41;;;7.09;100.00
63006;BME280;53704;52.532;6.426;2023-11-21T01:15:25;101097.41;;;7.01;100.00
63006;BME280;53704;52.532;6.426;2023-11-21T01:17:51;101103.34;;;7.04;100.00
63006;BME280;53704;52.532;6.426;2023-11-21T01:20:17;101110.06;;;6.99;100.00
63006;BME280;53704;52.532;6.426;2023-11-21T01:22:43;101103.25;;;7.16;100.00
63006;BME280;53704;52.532;6.426;2023-11-21T01:25:08;101106.75;;;7.16;100.00
63006;BME280;53704;52.532;6.426;2023-11-21T01:27:34;101111.97;;;7.18;100.00
63006;BME280;53704;52.532;6.426;2023-11-21T01:30:01;101118.47;;;7.15;100.00
63006;BME280;53704;52.532;6.426;2023-11-21T01:32:27;101114.38;;;7.21;100.00
63006;BME280;53704;52.532;6.426;2023-11-21T01:34:53;101120.63;;;7.00;100.00
63006;BME280;53704;52.532;6.426;2023-11-21T01:37:20;101119.44;;;7.14;100.00
63006;BME280;53704;52.532;6.426;2023-11-21T01:39:47;101127.34;;;7.16;100.00
63006;BME280;53704;52.532;6.426;2023-11-21T01:42:13;101120.16;;;7.16;100.00
63006;BME280;53704;52.532;6.426;2023-11-21T01:44:39;101120.34;;;7.24;100.00
63006;BME280;53704;52.532;6.426;2023-11-21T01:47:08;101117.56;;;7.36;100.00
63006;BME280;53704;52.532;6.426;2023-11-21T01:49:35;101119.81;;;7.31;100.00
63006;BME280;53704;52.532;6.426;2023-11-21T01:52:01;101124.53;;;7.17;100.00
63006;BME280;53704;52.532;6.426;2023-11-21T01:54:27;101120.00;;;7.18;100.00
63006;BME280;53704;52.532;6.426;2023-11-21T01:57:00;101123.56;;;7.18;100.00
63006;BME280;53704;52.532;6.426;2023-11-21T01:59:35;101134.03;;;7.31;100.00
63006;BME280;53704;52.532;6.426;2023-11-21T02:02:05;101126.69;;;7.33;100.00
63006;BME280;53704;52.532;6.426;2023-11-21T02:04:35;101115.75;;;7.46;100.00
63006;BME280;53704;52.532;6.426;2023-11-21T02:07:02;101121.84;;;7.48;100.00
63006;BME280;53704;52.532;6.426;2023-11-21T02:09:30;101118.88;;;7.51;100.00
63006;BME280;53704;52.532;6.426;2023-11-21T02:11:57;101123.72;;;7.27;100.00
63006;BME280;53704;52.532;6.426;2023-11-21T02:14:24;101131.56;;;7.49;100.00
63006;BME280;53704;52.532;6.426;2023-11-21T02:16:52;101133.53;;;7.47;100.00
63006;BME280;53704;52.532;6.426;2023-11-21T02:19:20;101124.38;;;7.50;100.00
63006;BME280;53704;52.532;6.426;2023-11-21T02:21:50;101130.06;;;7.66;100.00
63006;BME280;53704;52.532;6.426;2023-11-21T02:24:21;101139.19;;;7.54;100.00
63006;BME280;53704;52.532;6.426;2023-11-21T02:26:50;101139.72;;;7.48;100.00
63006;BME280;53704;52.532;6.426;2023-11-21T02:29:19;101143.44;;;7.56;100.00
63006;BME280;53704;52.532;6.426;2023-11-21T02:31:48;101143.72;;;7.63;100.00
63006;BME280;53704;52.532;6.426;2023-11-21T02:34:15;101151.75;;;7.63;100.00
63006;BME280;53704;52.532;6.426;2023-11-21T02:36:41;101145.03;;;7.69;100.00
63006;BME280;53704;52.532;6.426;2023-11-21T02:39:08;101137.97;;;7.77;100.00
63006;BME280;53704;52.532;6.426;2023-11-21T02:41:33;101141.72;;;7.55;100.00
63006;BME280;53704;52.532;6.426;2023-11-21T02:44:00;101143.31;;;7.68;100.00
63006;BME280;53704;52.532;6.426;2023-11-21T02:46:26;101145.28;;;7.56;100.00
63006;BME280;53704;52.532;6.426;2023-11-21T02:48:51;101149.50;;;7.58;100.00
63006;BME280;53704;52.532;6.426;2023-11-21T02:51:18;101139.31;;;7.52;100.00
63006;BME280;53704;52.532;6.426;2023-11-21T02:53:47;101145.69;;;7.51;100.00
63006;BME280;53704;52.532;6.426;2023-11-21T02:56:13;101141.72;;;7.55;100.00
63006;BME280;53704;52.532;6.426;2023-11-21T02:58:41;101153.72;;;7.51;100.00
63006;BME280;53704;52.532;6.426;2023-11-21T03:01:08;101150.56;;;7.46;100.00
63006;BME280;53704;52.532;6.426;2023-11-21T03:03:34;101156.56;;;7.29;100.00
63006;BME280;53704;52.532;6.426;2023-11-21T03:06:00;101154.97;;;7.47;100.00
63006;BME280;53704;52.532;6.426;2023-11-21T03:08:25;101162.81;;;7.39;100.00
63006;BME280;53704;52.532;6.426;2023-11-21T03:10:51;101151.31;;;7.48;100.00
63006;BME280;53704;52.532;6.426;2023-11-21T03:13:17;101148.09;;;7.54;100.00
63006;BME280;53704;52.532;6.426;2023-11-21T03:15:42;101163.09;;;7.36;100.00
63006;BME280;53704;52.532;6.426;2023-11-21T03:18:08;101151.44;;;7.47;100.00
63006;BME280;53704;52.532;6.426;2023-11-21T03:20:33;101161.16;;;7.48;100.00
63006;BME280;53704;52.532;6.426;2023-11-21T03:23:00;101168.69;;;7.64;100.00
63006;BME280;53704;52.532;6.426;2023-11-21T03:25:26;101166.00;;;7.64;100.00
63006;BME280;53704;52.532;6.426;2023-11-21T03:27:51;101159.13;;;7.71;100.00
63006;BME280;53704;52.532;6.426;2023-11-21T03:30:17;101170.13;;;7.77;100.00
63006;BME280;53704;52.532;6.426;2023-11-21T03:32:42;101162.09;;;7.77;100.00
63006;BME280;53704;52.532;6.426;2023-11-21T03:35:08;101169.28;;;7.77;100.00
63006;BME280;53704;52.532;6.426;2023-11-21T03:37:33;101171.59;;;7.91;100.00
63006;BME280;53704;52.532;6.426;2023-11-21T03:39:59;101175.97;;;7.92;100.00
63006;BME280;53704;52.532;6.426;2023-11-21T03:42:24;101171.28;;;7.85;100.00
63006;BME280;53704;52.532;6.426;2023-11-21T03:44:53;101176.06;;;7.81;100.00
63006;BME280;53704;52.532;6.426;2023-11-21T03:47:18;101171.53;;;7.72;100.00
63006;BME280;53704;52.532;6.426;2023-11-21T03:49:45;101177.38;;;7.96;100.00
63006;BME280;53704;52.532;6.426;2023-11-21T03:52:10;101178.03;;;7.79;100.00
63006;BME280;53704;52.532;6.426;2023-11-21T03:54:36;101187.78;;;7.80;100.00
63006;BME280;53704;52.532;6.426;2023-11-21T03:57:02;101183.69;;;7.86;100.00
63006;BME280;53704;52.532;6.426;2023-11-21T03:59:28;101183.41;;;7.79;100.00
63006;BME280;53704;52.532;6.426;2023-11-21T04:01:55;101190.31;;;7.72;100.00
63006;BME280;53704;52.532;6.426;2023-11-21T04:04:22;101186.16;;;7.99;100.00
63006;BME280;53704;52.532;6.426;2023-11-21T04:06:48;101188.72;;;7.59;100.00
63006;BME280;53704;52.532;6.426;2023-11-21T04:09:13;101196.66;;;7.81;100.00
63006;BME280;53704;52.532;6.426;2023-11-21T04:11:39;101196.38;;;7.74;100.00
63006;BME280;53704;52.532;6.426;2023-11-21T04:14:04;101189.91;;;7.86;100.00
63006;BME280;53704;52.532;6.426;2023-11-21T04:16:29;101193.56;;;7.85;100.00
63006;BME280;53704;52.532;6.426;2023-11-21T04:18:55;101202.03;;;7.81;100.00
63006;BME280;53704;52.532;6.426;2023-11-21T04:21:20;101211.78;;;7.91;100.00
63006;BME280;53704;52.532;6.426;2023-11-21T04:23:48;101220.78;;;7.81;100.00
63006;BME280;53704;52.532;6.426;2023-11-21T04:26:13;101219.59;;;8.04;100.00
63006;BME280;53704;52.532;6.426;2023-11-21T04:28:39;101221.44;;;8.13;100.00
63006;BME280;53704;52.532;6.426;2023-11-21T04:31:04;101225.78;;;8.05;100.00
63006;BME280;53704;52.532;6.426;2023-11-21T04:33:30;101231.00;;;7.96;100.00
63006;BME280;53704;52.532;6.426;2023-11-21T04:35:56;101227.50;;;8.06;100.00
63006;BME280;53704;52.532;6.426;2023-11-21T04:38:22;101234.84;;;8.04;100.00
63006;BME280;53704;52.532;6.426;2023-11-21T04:40:47;101233.94;;;7.93;100.00
63006;BME280;53704;52.532;6.426;2023-11-21T04:43:13;101237.91;;;7.89;100.00
63006;BME280;53704;52.532;6.426;2023-11-21T04:45:38;101233.38;;;7.90;100.00
63006;BME280;53704;52.532;6.426;2023-11-21T04:48:05;101237.16;;;7.87;100.00
63006;BME280;53704;52.532;6.426;2023-11-21T04:50:32;101238.56;;;7.82;100.00
63006;BME280;53704;52.532;6.426;2023-11-21T04:52:57;101246.09;;;7.97;100.00
63006;BME280;53704;52.532;6.426;2023-11-21T04:55:22;101252.88;;;8.02;100.00
63006;BME280;53704;52.532;6.426;2023-11-21T04:57:48;101254.81;;;7.90;100.00
63006;BME280;53704;52.532;6.426;2023-11-21T05:00:14;101268.09;;;7.91;100.00
63006;BME280;53704;52.532;6.426;2023-11-21T05:02:41;101269.72;;;8.13;100.00
63006;BME280;53704;52.532;6.426;2023-11-21T05:05:07;101282.47;;;7.90;100.00
63006;BME280;53704;52.532;6.426;2023-11-21T05:07:33;101280.72;;;8.10;100.00
63006;BME280;53704;52.532;6.426;2023-11-21T05:10:00;101281.13;;;8.06;100.00
63006;BME280;53704;52.532;6.426;2023-11-21T05:12:31;101279.66;;;7.92;100.00
63006;BME280;53704;52.532;6.426;2023-11-21T05:15:06;101289.72;;;8.09;100.00
63006;BME280;53704;52.532;6.426;2023-11-21T05:17:36;101289.59;;;8.11;100.00
63006;BME280;53704;52.532;6.426;2023-11-21T05:20:03;101294.09;;;8.01;100.00
63006;BME280;53704;52.532;6.426;2023-11-21T05:22:29;101304.91;;;7.89;100.00
63006;BME280;53704;52.532;6.426;2023-11-21T05:24:55;101304.56;;;8.04;100.00
63006;BME280;53704;52.532;6.426;2023-11-21T05:27:21;101304.97;;;8.09;100.00
63006;BME280;53704;52.532;6.426;2023-11-21T05:29:46;101301.59;;;8.07;100.00
63006;BME280;53704;52.532;6.426;2023-11-21T05:32:11;101309.59;;;7.97;100.00
63006;BME280;53704;52.532;6.426;2023-11-21T05:34:37;101304.44;;;7.84;100.00
63006;BME280;53704;52.532;6.426;2023-11-21T05:37:02;101317.53;;;7.99;100.00
63006;BME280;53704;52.532;6.426;2023-11-21T05:39:30;101314.19;;;8.16;100.00
63006;BME280;53704;52.532;6.426;2023-11-21T05:41:55;101309.38;;;8.10;100.00
63006;BME280;53704;52.532;6.426;2023-11-21T05:44:22;101316.41;;;8.11;100.00
63006;BME280;53704;52.532;6.426;2023-11-21T05:46:50;101313.50;;;7.83;100.00
63006;BME280;53704;52.532;6.426;2023-11-21T05:49:15;101319.56;;;8.16;100.00
63006;BME280;53704;52.532;6.426;2023-11-21T05:51:41;101326.59;;;8.17;100.00
63006;BME280;53704;52.532;6.426;2023-11-21T05:54:07;101333.88;;;7.95;100.00
63006;BME280;53704;52.532;6.426;2023-11-21T05:56:33;101336.22;;;8.20;100.00
63006;BME280;53704;52.532;6.426;2023-11-21T05:58:59;101335.81;;;8.24;100.00
63006;BME280;53704;52.532;6.426;2023-11-21T06:01:25;101342.59;;;8.28;100.00
63006;BME280;53704;52.532;6.426;2023-11-21T06:03:54;101342.41;;;8.20;100.00
63006;BME280;53704;52.532;6.426;2023-11-21T06:06:21;101347.41;;;8.34;100.00
63006;BME280;53704;52.532;6.426;2023-11-21T06:08:48;101342.28;;;8.22;100.00
63006;BME280;53704;52.532;6.426;2023-11-21T06:11:14;101350.19;;;8.23;100.00
63006;BME280;53704;52.532;6.426;2023-11-21T06:13:40;101341.19;;;7.93;100.00
63006;BME280;53704;52.532;6.426;2023-11-21T06:16:05;101355.06;;;7.99;100.00
63006;BME280;53704;52.532;6.426;2023-11-21T06:18:31;101361.13;;;7.79;100.00
63006;BME280;53704;52.532;6.426;2023-11-21T06:20:56;101380.31;;;7.75;100.00
63006;BME280;53704;52.532;6.426;2023-11-21T06:23:22;101383.91;;;7.64;100.00
63006;BME280;53704;52.532;6.426;2023-11-21T06:25:47;101387.56;;;7.63;100.00
63006;BME280;53704;52.532;6.426;2023-11-21T06:28:13;101393.91;;;7.83;100.00
63006;BME280;53704;52.532;6.426;2023-11-21T06:30:42;101396.97;;;7.78;100.00
63006;BME280;53704;52.532;6.426;2023-11-21T06:33:09;101401.16;;;7.71;100.00
63006;BME280;53704;52.532;6.426;2023-11-21T06:35:34;101403.72;;;7.73;100.00
63006;BME280;53704;52.532;6.426;2023-11-21T06:38:00;101407.50;;;7.91;100.00
63006;BME280;53704;52.532;6.426;2023-11-21T06:40:25;101412.94;;;7.80;100.00
63006;BME280;53704;52.532;6.426;2023-11-21T06:42:51;101411.28;;;8.10;100.00
63006;BME280;53704;52.532;6.426;2023-11-21T06:45:17;101413.56;;;8.14;100.00
63006;BME280;53704;52.532;6.426;2023-11-21T06:47:43;101407.41;;;8.03;100.00
63006;BME280;53704;52.532;6.426;2023-11-21T06:50:08;101415.81;;;7.88;100.00
63006;BME280;53704;52.532;6.426;2023-11-21T06:52:34;101428.94;;;7.91;100.00
63006;BME280;53704;52.532;6.426;2023-11-21T06:54:59;101420.72;;;7.83;100.00
63006;BME280;53704;52.532;6.426;2023-11-21T06:57:25;101432.13;;;8.06;100.00
63006;BME280;53704;52.532;6.426;2023-11-21T06:59:50;101434.44;;;7.90;100.00
63006;BME280;53704;52.532;6.426;2023-11-21T07:02:16;101446.59;;;7.73;100.00
63006;BME280;53704;52.532;6.426;2023-11-21T07:04:46;101452.34;;;7.68;100.00
63006;BME280;53704;52.532;6.426;2023-11-21T07:07:12;101447.25;;;7.86;100.00
63006;BME280;53704;52.532;6.426;2023-11-21T07:09:38;101456.03;;;7.67;100.00
63006;BME280;53704;52.532;6.426;2023-11-21T07:12:07;101464.38;;;7.74;100.00
63006;BME280;53704;52.532;6.426;2023-11-21T07:14:35;101464.06;;;7.67;100.00
63006;BME280;53704;52.532;6.426;2023-11-21T07:17:01;101472.81;;;7.90;100.00
63006;BME280;53704;52.532;6.426;2023-11-21T07:19:26;101477.00;;;8.04;100.00
63006;BME280;53704;52.532;6.426;2023-11-21T07:21:51;101480.47;;;7.95;100.00
63006;BME280;53704;52.532;6.426;2023-11-21T07:24:18;101486.84;;;7.61;100.00
63006;BME280;53704;52.532;6.426;2023-11-21T07:26:43;101498.66;;;7.59;100.00
63006;BME280;53704;52.532;6.426;2023-11-21T07:29:09;101513.81;;;7.49;100.00
63006;BME280;53704;52.532;6.426;2023-11-21T07:31:34;101528.56;;;7.43;100.00
63006;BME280;53704;52.532;6.426;2023-11-21T07:34:00;101529.81;;;7.39;100.00
63006;BME280;53704;52.532;6.426;2023-11-21T07:36:26;101536.25;;;7.36;100.00
63006;BME280;53704;52.532;6.426;2023-11-21T07:38:52;101536.97;;;7.50;100.00
63006;BME280;53704;52.532;6.426;2023-11-21T07:41:18;101541.41;;;7.60;100.00
63006;BME280;53704;52.532;6.426;2023-11-21T07:43:45;101546.19;;;7.57;100.00
63006;BME280;53704;52.532;6.426;2023-11-21T07:46:11;101549.44;;;7.60;100.00
63006;BME280;53704;52.532;6.426;2023-11-21T07:48:41;101552.63;;;7.66;100.00
63006;BME280;53704;52.532;6.426;2023-11-21T07:51:08;101557.78;;;7.57;100.00
63006;BME280;53704;52.532;6.426;2023-11-21T07:53:34;101565.28;;;7.64;100.00
63006;BME280;53704;52.532;6.426;2023-11-21T07:56:04;101566.91;;;7.55;100.00
63006;BME280;53704;52.532;6.426;2023-11-21T07:58:29;101560.19;;;7.49;100.00
63006;BME280;53704;52.532;6.426;2023-11-21T08:00:56;101569.06;;;7.61;100.00
63006;BME280;53704;52.532;6.426;2023-11-21T08:03:21;101568.69;;;7.66;100.00
63006;BME280;53704;52.532;6.426;2023-11-21T08:05:47;101571.00;;;7.70;100.00
63006;BME280;53704;52.532;6.426;2023-11-21T08:08:12;101570.50;;;7.76;100.00
63006;BME280;53704;52.532;6.426;2023-11-21T08:10:38;101573.13;;;7.88;100.00
63006;BME280;53704;52.532;6.426;2023-11-21T08:13:07;101581.81;;;7.80;100.00
63006;BME280;53704;52.532;6.426;2023-11-21T08:15:34;101583.41;;;7.71;100.00
63006;BME280;53704;52.532;6.426;2023-11-21T08:18:00;101595.47;;;7.77;100.00
63006;BME280;53704;52.532;6.426;2023-11-21T08:20:26;101593.25;;;7.82;100.00
63006;BME280;53704;52.532;6.426;2023-11-21T08:22:51;101607.16;;;7.76;100.00
63006;BME280;53704;52.532;6.426;2023-11-21T08:25:18;101607.38;;;7.84;100.00
63006;BME280;53704;52.532;6.426;2023-11-21T08:27:45;101611.06;;;8.04;100.00
63006;BME280;53704;52.532;6.426;2023-11-21T08:30:11;101612.00;;;7.82;100.00
63006;BME280;53704;52.532;6.426;2023-11-21T08:32:38;101619.22;;;7.82;100.00
63006;BME280;53704;52.532;6.426;2023-11-21T08:35:03;101616.91;;;7.77;100.00
63006;BME280;53704;52.532;6.426;2023-11-21T08:37:30;101617.25;;;7.84;100.00
63006;BME280;53704;52.532;6.426;2023-11-21T08:39:58;101616.78;;;7.78;100.00
63006;BME280;53704;52.532;6.426;2023-11-21T08:42:27;101616.16;;;7.86;100.00
63006;BME280;53704;52.532;6.426;2023-11-21T08:44:57;101625.03;;;7.87;100.00
63006;BME280;53704;52.532;6.426;2023-11-21T08:47:23;101625.63;;;7.90;100.00
63006;BME280;53704;52.532;6.426;2023-11-21T08:49:50;101639.72;;;8.04;100.00
63006;BME280;53704;52.532;6.426;2023-11-21T08:52:18;101636.53;;;8.10;100.00
63006;BME280;53704;52.532;6.426;2023-11-21T08:54:46;101643.09;;;8.17;100.00
63006;BME280;53704;52.532;6.426;2023-11-21T08:57:11;101650.78;;;8.10;100.00
63006;BME280;53704;52.532;6.426;2023-11-21T08:59:37;101658.25;;;8.07;100.00
63006;BME280;53704;52.532;6.426;2023-11-21T09:02:02;101655.38;;;7.99;100.00
63006;BME280;53704;52.532;6.426;2023-11-21T09:04:28;101662.00;;;8.15;100.00
63006;BME280;53704;52.532;6.426;2023-11-21T09:06:53;101669.69;;;8.09;100.00
63006;BME280;53704;52.532;6.426;2023-11-21T09:09:19;101672.28;;;7.99;100.00
63006;BME280;53704;52.532;6.426;2023-11-21T09:11:45;101672.63;;;8.06;100.00
63006;BME280;53704;52.532;6.426;2023-11-21T09:14:11;101679.22;;;8.02;100.00
63006;BME280;53704;52.532;6.426;2023-11-21T09:16:38;101675.09;;;7.97;100.00
63006;BME280;53704;52.532;6.426;2023-11-21T09:19:04;101688.50;;;7.97;100.00
63006;BME280;53704;52.532;6.426;2023-11-21T09:21:30;101695.59;;;7.99;100.00
63006;BME280;53704;52.532;6.426;2023-11-21T09:23:56;101703.88;;;7.95;100.00
63006;BME280;53704;52.532;6.426;2023-11-21T09:26:21;101706.03;;;8.02;100.00
63006;BME280;53704;52.532;6.426;2023-11-21T09:28:47;101708.47;;;8.05;100.00
63006;BME280;53704;52.532;6.426;2023-11-21T09:31:13;101708.84;;;8.11;100.00
63006;BME280;53704;52.532;6.426;2023-11-21T09:33:44;101718.94;;;8.08;100.00
63006;BME280;53704;52.532;6.426;2023-11-21T09:36:13;101718.09;;;8.07;100.00
63006;BME280;53704;52.532;6.426;2023-11-21T09:38:42;101716.25;;;8.19;100.00
63006;BME280;53704;52.532;6.426;2023-11-21T09:44:13;101728.63;;;8.31;100.00
63006;BME280;53704;52.532;6.426;2023-11-21T09:46:42;101735.69;;;8.44;100.00
63006;BME280;53704;52.532;6.426;2023-11-21T09:49:11;101737.22;;;8.58;100.00
63006;BME280;53704;52.532;6.426;2023-11-21T09:51:39;101742.28;;;8.51;100.00
63006;BME280;53704;52.532;6.426;2023-11-21T09:54:08;101747.28;;;8.44;100.00
63006;BME280;53704;52.532;6.426;2023-11-21T09:56:36;101749.47;;;8.39;100.00
63006;BME280;53704;52.532;6.426;2023-11-21T09:59:03;101751.81;;;8.32;100.00
63006;BME280;53704;52.532;6.426;2023-11-21T10:01:36;101754.19;;;8.58;100.00
63006;BME280;53704;52.532;6.426;2023-11-21T10:04:02;101754.94;;;8.49;100.00
63006;BME280;53704;52.532;6.426;2023-11-21T10:06:30;101752.63;;;8.44;100.00
63006;BME280;53704;52.532;6.426;2023-11-21T10:08:56;101755.56;;;8.53;100.00
63006;BME280;53704;52.532;6.426;2023-11-21T10:11:27;101759.75;;;8.66;100.00
63006;BME280;53704;52.532;6.426;2023-11-21T10:13:55;101763.94;;;8.59;100.00
63006;BME280;53704;52.532;6.426;2023-11-21T10:16:25;101767.59;;;8.58;100.00
63006;BME280;53704;52.532;6.426;2023-11-21T10:18:52;101763.06;;;8.70;100.00
63006;BME280;53704;52.532;6.426;2023-11-21T10:21:19;101777.28;;;8.49;100.00
63006;BME280;53704;52.532;6.426;2023-11-21T10:23:45;101785.22;;;8.51;100.00
63006;BME280;53704;52.532;6.426;2023-11-21T10:26:12;101786.19;;;8.50;100.00
63006;BME280;53704;52.532;6.426;2023-11-21T10:29:00;101795.66;;;8.65;100.00
63006;BME280;53704;52.532;6.426;2023-11-21T10:31:29;101795.19;;;8.49;100.00
63006;BME280;53704;52.532;6.426;2023-11-21T10:34:13;101801.06;;;8.54;100.00
63006;BME280;53704;52.532;6.426;2023-11-21T10:36:39;101802.03;;;8.42;100.00
63006;BME280;53704;52.532;6.426;2023-11-21T10:39:04;101810.09;;;8.53;100.00
63006;BME280;53704;52.532;6.426;2023-11-21T10:41:30;101812.66;;;8.32;100.00
63006;BME280;53704;52.532;6.426;2023-11-21T10:43:55;101815.72;;;8.27;100.00
63006;BME280;53704;52.532;6.426;2023-11-21T10:46:21;101815.38;;;8.09;100.00
63006;BME280;53704;52.532;6.426;2023-11-21T10:48:57;101820.38;;;7.91;100.00
63006;BME280;53704;52.532;6.426;2023-11-21T10:51:23;101824.91;;;7.91;100.00
63006;BME280;53704;52.532;6.426;2023-11-21T10:53:52;101828.66;;;8.00;100.00
63006;BME280;53704;52.532;6.426;2023-11-21T10:56:18;101824.41;;;8.08;100.00
63006;BME280;53704;52.532;6.426;2023-11-21T10:58:48;101833.53;;;8.06;100.00
63006;BME280;53704;52.532;6.426;2023-11-21T11:01:17;101829.91;;;7.95;100.00
63006;BME280;53704;52.532;6.426;2023-11-21T11:03:44;101834.38;;;7.95;100.00
63006;BME280;53704;52.532;6.426;2023-11-21T11:06:10;101831.22;;;7.78;100.00
63006;BME280;53704;52.532;6.426;2023-11-21T11:08:38;101841.59;;;7.72;100.00
63006;BME280;53704;52.532;6.426;2023-11-21T11:11:05;101835.09;;;7.63;100.00
63006;BME280;53704;52.532;6.426;2023-11-21T11:13:31;101843.16;;;7.63;100.00
63006;BME280;53704;52.532;6.426;2023-11-21T11:16:01;101850.81;;;7.68;100.00
63006;BME280;53704;52.532;6.426;2023-11-21T11:18:33;101859.81;;;7.67;100.00
63006;BME280;53704;52.532;6.426;2023-11-21T11:21:23;101856.19;;;7.68;100.00
63006;BME280;53704;52.532;6.426;2023-11-21T11:24:10;101858.53;;;7.84;100.00
63006;BME280;53704;52.532;6.426;2023-11-21T11:34:36;101869.97;;;7.86;100.00
63006;BME280;53704;52.532;6.426;2023-11-21T11:37:07;101871.69;;;7.87;100.00
63006;BME280;53704;52.532;6.426;2023-11-21T11:39:37;101866.66;;;7.71;100.00
63006;BME280;53704;52.532;6.426;2023-11-21T11:42:08;101871.78;;;7.74;100.00
63006;BME280;53704;52.532;6.426;2023-11-21T11:50:06;101888.59;;;7.76;100.00
63006;BME280;53704;52.532;6.426;2023-11-21T11:52:47;101894.09;;;7.74;100.00
63006;BME280;53704;52.532;6.426;2023-11-21T11:55:15;101899.31;;;7.65;100.00
63006;BME280;53704;52.532;6.426;2023-11-21T11:57:45;101889.91;;;7.59;100.00
63006;BME280;53704;52.532;6.426;2023-11-21T12:00:15;101899.41;;;7.63;100.00
63006;BME280;53704;52.532;6.426;2023-11-21T12:02:42;101901.78;;;7.79;100.00
63006;BME280;53704;52.532;6.426;2023-11-21T12:05:13;101910.81;;;7.78;100.00
63006;BME280;53704;52.532;6.426;2023-11-21T12:10:17;101919.09;;;7.75;100.00
63006;BME280;53704;52.532;6.426;2023-11-21T12:12:51;101923.19;;;7.68;100.00
63006;BME280;53704;52.532;6.426;2023-11-21T12:15:18;101926.09;;;7.65;100.00
63006;BME280;53704;52.532;6.426;2023-11-21T12:17:45;101922.44;;;7.54;100.00
63006;BME280;53704;52.532;6.426;2023-11-21T12:20:12;101932.78;;;7.59;100.00
63006;BME280;53704;52.532;6.426;2023-11-21T12:22:47;101929.00;;;7.50;100.00
63006;BME280;53704;52.532;6.426;2023-11-21T12:25:17;101937.09;;;7.37;100.00
63006;BME280;53704;52.532;6.426;2023-11-21T12:27:51;101938.25;;;7.22;100.00
63006;BME280;53704;52.532;6.426;2023-11-21T12:30:22;101940.41;;;7.41;100.00
63006;BME280;53704;52.532;6.426;2023-11-21T12:32:52;101938.03;;;7.25;100.00
63006;BME280;53704;52.532;6.426;2023-11-21T12:35:19;101946.81;;;7.03;100.00
63006;BME280;53704;52.532;6.426;2023-11-21T12:37:45;101951.13;;;7.17;100.00
63006;BME280;53704;52.532;6.426;2023-11-21T12:40:12;101957.06;;;7.09;100.00
63006;BME280;53704;52.532;6.426;2023-11-21T12:42:47;101953.47;;;7.21;100.00
63006;BME280;53704;52.532;6.426;2023-11-21T12:47:49;101953.09;;;7.15;100.00
63006;BME280;53704;52.532;6.426;2023-11-21T12:50:19;101959.13;;;7.05;100.00
63006;BME280;53704;52.532;6.426;2023-11-21T12:52:47;101958.78;;;7.10;100.00
63006;BME280;53704;52.532;6.426;2023-11-21T12:55:22;101957.00;;;7.22;100.00
63006;BME280;53704;52.532;6.426;2023-11-21T12:57:49;101966.19;;;7.31;100.00
63006;BME280;53704;52.532;6.426;2023-11-21T13:00:18;101969.31;;;7.24;100.00
63006;BME280;53704;52.532;6.426;2023-11-21T13:02:57;101962.41;;;7.57;100.00
63006;BME280;53704;52.532;6.426;2023-11-21T13:05:49;101978.53;;;7.20;100.00
63006;BME280;53704;52.532;6.426;2023-11-21T13:08:21;101969.28;;;7.13;100.00
63006;BME280;53704;52.532;6.426;2023-11-21T13:10:55;101975.25;;;7.17;100.00
63006;BME280;53704;52.532;6.426;2023-11-21T13:13:22;101973.00;;;7.11;100.00